Time;durP1;ratioP1;P1;durP2;ratioP2;P2;SDS_P1;SDS_P2;PMS_P1;PMS_P2;Temp;Humidity;BMP_temperature;BMP_pressure;BME280_temperature;BME280_humidity;BME280_pressure;Samples;Min_cycle;Max_cycle;Signal;HPM_P1;HPM_P2
2022/07/21 06:23:15;;;;;;;;;17.33;15.33;;;;;22.50;100.00;100510.13;6288968;22;46203;-96
2022/07/21 06:25:42;;;;;;;;;14.67;14.67;;;;;22.48;100.00;100503.91;6291913;22;47273;-96
2022/07/21 06:28:07;;;;;;;;;17.67;13.00;;;;;22.58;100.00;100512.72;6319437;22;45749;-95
2022/07/21 06:30:33;;;;;;;;;13.33;12.33;;;;;22.54;100.00;100504.75;6309035;22;45165;-94
2022/07/21 06:32:58;;;;;;;;;14.67;11.00;;;;;22.65;100.00;100511.81;6311478;22;45444;-95
2022/07/21 06:35:24;;;;;;;;;13.00;12.67;;;;;22.73;100.00;100511.78;6362900;22;46979;-95
2022/07/21 06:37:49;;;;;;;;;19.33;14.33;;;;;22.74;100.00;100509.06;6364603;22;45244;-95
2022/07/21 06:40:15;;;;;;;;;12.67;11.00;;;;;22.82;100.00;100529.50;6365166;22;48872;-94
2022/07/21 06:42:40;;;;;;;;;17.00;16.67;;;;;22.82;100.00;100517.03;6310326;22;45233;-94
2022/07/21 06:45:06;;;;;;;;;18.33;16.00;;;;;22.92;100.00;100535.66;6362327;22;48023;-96
2022/07/21 06:47:32;;;;;;;;;18.33;16.00;;;;;22.95;100.00;100541.88;6335937;22;45213;-95
2022/07/21 06:50:02;;;;;;;;;15.33;12.67;;;;;23.00;100.00;100517.75;6310295;22;45341;-94
2022/07/21 06:52:29;;;;;;;;;16.00;14.67;;;;;23.10;100.00;100526.56;6363213;22;45343;-93
2022/07/21 06:54:55;;;;;;;;;20.67;13.00;;;;;23.16;100.00;100530.97;6309886;22;47821;-94
2022/07/21 06:57:20;;;;;;;;;13.33;12.67;;;;;23.19;100.00;100533.63;6310124;22;45280;-92
2022/07/21 06:59:45;;;;;;;;;14.67;14.67;;;;;23.28;100.00;100535.28;6334970;22;46309;-95
2022/07/21 07:02:11;;;;;;;;;17.33;14.67;;;;;23.42;100.00;100535.16;6307081;22;45367;-91
2022/07/21 07:04:37;;;;;;;;;16.33;16.33;;;;;23.53;100.00;100552.00;6335762;22;47730;-93
2022/07/21 07:07:03;;;;;;;;;17.33;17.33;;;;;23.61;100.00;100553.69;6368825;22;51972;-96
2022/07/21 07:09:28;;;;;;;;;13.33;13.33;;;;;23.65;100.00;100556.31;6341160;22;45441;-96
2022/07/21 07:12:02;;;;;;;;;20.33;15.00;;;;;23.66;100.00;100558.09;6366561;22;45580;-96
2022/07/21 07:14:28;;;;;;;;;16.67;15.00;;;;;23.73;100.00;100571.41;6310596;22;47294;-96
2022/07/21 07:16:53;;;;;;;;;16.00;16.00;;;;;23.75;100.00;100569.59;6339803;22;45311;-96
2022/07/21 07:19:18;;;;;;;;;13.33;13.00;;;;;23.71;100.00;100575.91;6310328;22;45375;-94
2022/07/21 07:21:44;;;;;;;;;19.67;16.33;;;;;23.79;100.00;100575.81;6360495;22;45465;-96
2022/07/21 07:24:09;;;;;;;;;15.33;15.33;;;;;23.82;100.00;100586.47;6362723;22;49298;-89
2022/07/21 07:26:34;;;;;;;;;15.67;15.67;;;;;23.83;100.00;100593.63;6310272;22;45697;-95
2022/07/21 07:29:00;;;;;;;;;18.00;17.00;;;;;23.83;100.00;100594.50;6362560;22;45329;-95
2022/07/21 07:31:25;;;;;;;;;22.67;19.33;;;;;23.93;100.00;100592.59;6360055;22;45358;-96
2022/07/21 07:33:50;;;;;;;;;17.00;17.00;;;;;24.02;100.00;100583.53;6358603;22;48318;-96
2022/07/21 07:36:16;;;;;;;;;18.33;17.67;;;;;24.09;100.00;100578.97;6355903;22;45326;-96
2022/07/21 07:38:41;;;;;;;;;16.33;14.67;;;;;24.22;100.00;100580.56;6350092;22;46214;-85
2022/07/21 07:41:07;;;;;;;;;15.67;15.00;;;;;24.37;100.00;100599.19;6305587;22;45406;-86
2022/07/21 07:43:32;;;;;;;;;15.00;14.67;;;;;24.51;100.00;100588.22;6302533;22;45706;-88
2022/07/21 07:45:57;;;;;;;;;16.67;13.67;;;;;24.67;100.00;100592.44;6308558;22;45717;-86
2022/07/21 07:48:23;;;;;;;;;15.33;14.00;;;;;24.80;100.00;100602.09;6304339;22;45873;-86
2022/07/21 07:50:49;;;;;;;;;16.67;16.00;;;;;24.72;100.00;100599.53;6278089;22;62089;-87
2022/07/21 07:53:14;;;;;;;;;16.33;15.33;;;;;24.98;100.00;100614.31;6329271;22;53675;-88
2022/07/21 07:55:39;;;;;;;;;19.00;18.67;;;;;25.01;100.00;100606.25;6334319;22;45346;-88
2022/07/21 07:58:05;;;;;;;;;17.67;16.67;;;;;25.06;100.00;100608.84;6333116;22;45283;-87
2022/07/21 08:00:30;;;;;;;;;17.00;17.00;;;;;25.13;100.00;100610.50;6332971;22;45262;-87
2022/07/21 08:02:55;;;;;;;;;21.67;16.67;;;;;25.21;100.00;100613.94;6304672;22;47287;-86
2022/07/21 08:05:21;;;;;;;;;15.67;15.67;;;;;25.21;100.00;100618.41;6334431;22;45689;-87
2022/07/21 08:07:46;;;;;;;;;19.67;19.33;;;;;25.25;100.00;100624.63;6333875;22;45392;-88
2022/07/21 08:10:12;;;;;;;;;20.00;18.67;;;;;25.34;100.00;100611.00;6333506;22;45488;-87
2022/07/21 08:12:38;;;;;;;;;22.00;19.33;;;;;25.46;100.00;100615.28;6305514;22;46218;-87
2022/07/21 08:15:04;;;;;;;;;19.67;16.67;;;;;25.53;100.00;100621.41;6332435;22;45330;-87
2022/07/21 08:17:30;;;;;;;;;20.67;19.00;;;;;25.59;100.00;100633.84;6334741;22;45504;-87
2022/07/21 08:19:56;;;;;;;;;21.67;18.33;;;;;25.63;100.00;100635.56;6333402;22;45564;-87
2022/07/21 08:22:21;;;;;;;;;17.00;16.33;;;;;25.56;100.00;100640.19;6334211;22;46274;-87
2022/07/21 08:24:46;;;;;;;;;22.67;20.33;;;;;25.55;100.00;100646.44;6334204;22;45324;-87
2022/07/21 08:27:12;;;;;;;;;19.67;19.00;;;;;25.55;100.00;100647.34;6333205;22;54348;-88
2022/07/21 08:29:37;;;;;;;;;22.67;19.67;;;;;25.59;100.00;100649.97;6330542;22;45284;-86
2022/07/21 08:32:03;;;;;;;;;23.00;20.00;;;;;25.56;100.00;100661.66;6305443;22;47017;-89
2022/07/21 08:34:28;;;;;;;;;20.67;19.33;;;;;25.67;100.00;100678.47;6304662;22;45752;-87
2022/07/21 08:36:54;;;;;;;;;21.33;19.00;;;;;25.79;100.00;100679.19;6334726;22;45258;-87
2022/07/21 08:39:19;;;;;;;;;24.67;19.00;;;;;26.00;100.00;100668.91;6334089;22;45373;-87
2022/07/21 08:41:45;;;;;;;;;18.67;17.00;;;;;26.17;100.00;100668.53;6333519;22;46204;-87
2022/07/21 08:44:10;;;;;;;;;20.33;18.00;;;;;26.30;100.00;100673.66;6327287;22;45658;-88
2022/07/21 08:46:37;;;;;;;;;21.00;17.67;;;;;26.42;100.00;100676.06;6333842;22;45309;-91
2022/07/21 08:49:03;;;;;;;;;22.00;20.33;;;;;26.52;100.00;100667.81;6333280;22;45503;-87
2022/07/21 08:51:34;;;;;;;;;21.00;18.00;;;;;26.51;100.00;100688.47;6333377;22;45541;-88
2022/07/21 08:53:59;;;;;;;;;19.00;18.00;;;;;26.63;100.00;100679.22;6333315;22;45317;-86
2022/07/21 08:56:24;;;;;;;;;17.67;17.67;;;;;26.76;100.00;100695.97;6332765;22;45327;-88
2022/07/21 08:58:49;;;;;;;;;23.00;19.67;;;;;26.99;100.00;100693.63;6297171;22;45411;-88
2022/07/21 09:01:15;;;;;;;;;24.67;19.67;;;;;27.24;100.00;100686.78;6331260;22;67771;-89
2022/07/21 09:03:40;;;;;;;;;19.67;18.00;;;;;27.40;100.00;100703.44;6355606;22;45330;-88
2022/07/21 09:06:15;;;;;;;;;21.67;19.67;;;;;27.48;100.00;100716.69;6332601;22;47987;-87
2022/07/21 09:08:45;;;;;;;;;19.67;19.00;;;;;27.42;100.00;100707.00;6334197;22;45414;-88
2022/07/21 09:11:28;;;;;;;;;16.67;16.33;;;;;27.26;100.00;100723.56;6331959;22;46161;-87
2022/07/21 09:14:12;;;;;;;;;22.00;17.67;;;;;27.04;100.00;100729.41;6331859;22;45308;-87
2022/07/21 09:16:46;;;;;;;;;17.67;17.00;;;;;26.85;100.00;100735.25;6332589;22;45252;-88
2022/07/21 09:19:18;;;;;;;;;16.33;15.67;;;;;26.74;100.00;100727.44;6327658;22;45509;-88
2022/07/21 09:21:44;;;;;;;;;18.00;18.00;;;;;26.67;100.00;100726.66;6304012;22;48094;-88
2022/07/21 09:24:21;;;;;;;;;19.00;16.67;;;;;26.66;100.00;100719.53;6304117;22;45302;-88
2022/07/21 09:26:56;;;;;;;;;19.67;17.00;;;;;26.83;100.00;100714.66;6333544;22;45556;-88
2022/07/21 09:29:22;;;;;;;;;21.33;19.33;;;;;26.95;100.00;100725.16;6330766;22;45403;-87
2022/07/21 09:31:47;;;;;;;;;19.33;17.67;;;;;27.05;100.00;100719.53;6332462;22;51085;-87
2022/07/21 09:34:14;;;;;;;;;19.67;19.33;;;;;27.05;100.00;100727.63;6303664;22;45416;-88
2022/07/21 09:36:54;;;;;;;;;20.00;19.00;;;;;27.04;100.00;100725.84;6333544;22;45345;-88
2022/07/21 09:39:43;;;;;;;;;19.00;16.67;;;;;27.10;100.00;100723.91;6332887;22;45372;-88
2022/07/21 09:42:13;;;;;;;;;19.00;16.00;;;;;27.24;100.00;100746.06;6333668;22;45531;-88
2022/07/21 09:44:43;;;;;;;;;18.67;17.00;;;;;27.39;100.00;100740.28;6331623;22;45312;-88
2022/07/21 09:47:16;;;;;;;;;14.67;14.67;;;;;27.53;100.00;100737.22;6328513;22;45613;-89
2022/07/21 09:49:42;;;;;;;;;17.67;17.67;;;;;27.65;100.00;100738.69;6332691;22;45319;-88
2022/07/21 09:52:22;;;;;;;;;19.00;15.67;;;;;27.78;100.00;100746.47;6330635;22;46534;-88
2022/07/21 09:54:48;;;;;;;;;16.00;16.00;;;;;27.83;100.00;100758.03;6331958;22;45292;-89
2022/07/21 09:57:16;;;;;;;;;18.33;17.00;;;;;27.93;100.00;100760.50;6332304;22;45360;-89
2022/07/21 09:59:44;;;;;;;;;19.33;16.00;;;;;27.99;100.00;100757.59;6332951;22;45247;-88
2022/07/21 10:02:22;;;;;;;;;15.67;14.00;;;;;28.04;100.00;100762.91;6335225;22;45352;-88
2022/07/21 10:04:55;;;;;;;;;18.33;16.00;;;;;28.32;100.00;100746.78;6302768;22;45472;-87
2022/07/21 10:07:22;;;;;;;;;18.00;15.67;;;;;28.58;100.00;100751.50;6302077;22;45907;-86
2022/07/21 10:09:47;;;;;;;;;14.67;14.00;;;;;28.75;100.00;100769.84;6331988;22;45387;-86
2022/07/21 10:12:15;;;;;;;;;17.67;17.00;;;;;28.73;100.00;100764.50;6334856;22;46233;-86
2022/07/21 10:14:41;;;;;;;;;18.33;17.33;;;;;28.64;100.00;100765.66;6332819;22;45336;-87
2022/07/21 10:17:07;;;;;;;;;20.67;18.00;;;;;29.00;100.00;100769.06;6329398;22;45296;-86
2022/07/21 10:19:41;;;;;;;;;16.67;15.33;;;;;30.66;100.00;100741.69;6333539;22;45309;-87
2022/07/21 10:22:31;;;;;;;;;17.33;17.00;;;;;32.33;100.00;100775.41;6332089;22;45559;-86
2022/07/21 10:24:58;;;;;;;;;17.00;16.67;;;;;33.17;100.00;100784.13;6333077;22;45564;-88
2022/07/21 10:27:24;;;;;;;;;8.67;7.33;;;;;33.78;100.00;100802.91;6334254;22;45295;-87
2022/07/21 10:29:52;;;;;;;;;16.67;16.67;;;;;34.41;100.00;100840.44;6332222;22;45257;-88
2022/07/21 10:32:21;;;;;;;;;18.33;15.67;;;;;35.06;100.00;100835.09;6334388;22;46510;-86
2022/07/21 10:34:48;;;;;;;;;14.00;13.33;;;;;35.94;96.72;100871.00;6332384;22;45683;-86
2022/07/21 10:37:39;;;;;;;;;15.00;14.00;;;;;36.42;94.09;100882.69;6334233;22;45341;-85
2022/07/21 10:40:26;;;;;;;;;16.00;14.67;;;;;37.40;92.87;101474.03;6316259;22;45426;-87
2022/07/21 10:43:00;;;;;;;;;14.33;11.33;;;;;38.71;91.61;101541.28;6321548;22;46018;-87
2022/07/21 10:45:33;;;;;;;;;17.33;14.00;;;;;40.05;88.24;101627.06;6332636;22;45468;-87
2022/07/21 10:48:01;;;;;;;;;16.00;15.00;;;;;41.41;85.94;101677.41;6333402;22;45411;-87
2022/07/21 10:50:31;;;;;;;;;14.00;11.00;;;;;42.08;80.70;101740.56;6326864;22;45368;-87
2022/07/21 10:53:00;;;;;;;;;11.33;11.33;;;;;41.29;77.44;101761.75;6332310;22;45351;-87
2022/07/21 10:55:29;;;;;;;;;13.33;12.33;;;;;42.21;78.36;101757.97;6333893;22;45312;-88
2022/07/21 10:58:14;;;;;;;;;15.33;15.00;;;;;42.91;75.11;101778.50;6306679;22;45270;-87
2022/07/21 11:01:15;;;;;;;;;13.00;13.00;;;;;44.28;72.65;101790.72;6333103;22;45308;-87
2022/07/21 11:03:42;;;;;;;;;14.67;13.33;;;;;45.36;68.17;101821.41;6334073;22;45593;-88
2022/07/21 11:06:23;;;;;;;;;13.67;13.00;;;;;46.62;67.03;101820.31;6334125;22;45561;-87
2022/07/21 11:09:02;;;;;;;;;12.00;12.00;;;;;47.92;66.20;101818.22;6305767;22;45332;-87
2022/07/21 11:11:30;;;;;;;;;13.67;12.33;;;;;48.99;62.52;101840.97;6334119;22;45454;-87
2022/07/21 11:14:14;;;;;;;;;14.33;12.67;;;;;47.58;58.89;101849.38;6332893;22;45369;-87
2022/07/21 11:16:42;;;;;;;;;13.33;12.67;;;;;46.12;59.04;101855.38;6334001;22;45387;-87
2022/07/21 11:19:29;;;;;;;;;13.00;12.00;;;;;46.80;59.56;101846.50;6334281;22;45542;-86
2022/07/21 11:21:56;;;;;;;;;11.67;11.67;;;;;47.97;58.65;101845.56;6334271;22;45471;-88
2022/07/21 11:24:23;;;;;;;;;14.67;12.00;;;;;49.10;57.33;101848.16;6333917;22;46351;-88
2022/07/21 11:27:05;;;;;;;;;10.00;9.00;;;;;50.33;55.54;101854.81;6334270;22;45378;-87
2022/07/21 11:29:31;;;;;;;;;11.67;11.67;;;;;51.21;52.99;101856.34;6332302;22;45263;-86
2022/07/21 11:31:58;;;;;;;;;12.67;10.67;;;;;51.16;51.75;101854.94;6334294;22;45370;-85
2022/07/21 11:34:24;;;;;;;;;12.00;11.00;;;;;51.15;51.35;101856.00;6331915;22;46013;-85
2022/07/21 11:37:01;;;;;;;;;10.00;10.00;;;;;49.44;50.71;101856.78;6334556;22;45318;-86
2022/07/21 11:39:26;;;;;;;;;13.67;11.67;;;;;47.38;50.59;101849.41;6333922;22;45321;-86
2022/07/21 11:41:53;;;;;;;;;11.33;11.00;;;;;47.04;52.15;101839.63;6306198;22;45435;-85
2022/07/21 11:44:25;;;;;;;;;9.33;9.33;;;;;48.17;52.61;101837.16;6332445;22;45537;-86
2022/07/21 11:46:56;;;;;;;;;12.67;12.67;;;;;49.63;51.15;101839.84;6334198;22;45235;-85
2022/07/21 11:49:22;;;;;;;;;11.33;10.33;;;;;49.17;50.10;101846.50;6333373;22;45570;-86
2022/07/21 11:51:55;;;;;;;;;11.33;9.67;;;;;47.46;49.07;101841.19;6333829;22;45419;-86
2022/07/21 11:54:25;;;;;;;;;10.33;10.33;;;;;47.09;50.94;101837.28;6305144;22;47644;-86
2022/07/21 11:56:52;;;;;;;;;11.00;10.67;;;;;48.33;49.05;101833.66;6334100;22;45386;-85
2022/07/21 11:59:18;;;;;;;;;9.00;9.00;;;;;49.73;49.47;101836.97;6332913;22;45293;-85
2022/07/21 12:01:49;;;;;;;;;11.67;10.00;;;;;51.29;49.35;101833.94;6333601;22;45367;-85
2022/07/21 12:04:28;;;;;;;;;11.00;10.00;;;;;52.68;48.22;101835.63;6333223;22;46246;-86
2022/07/21 12:06:54;;;;;;;;;11.00;11.00;;;;;53.65;46.86;101840.66;6330568;22;45415;-85
2022/07/21 12:09:20;;;;;;;;;9.33;8.00;;;;;52.13;45.28;101836.47;6332575;22;45331;-86
2022/07/21 12:11:45;;;;;;;;;11.00;11.00;;;;;49.97;45.04;101837.25;6330624;22;45341;-86
2022/07/21 12:14:10;;;;;;;;;11.00;9.67;;;;;48.01;45.66;101821.97;6331764;22;46368;-85
2022/07/21 12:16:50;;;;;;;;;11.00;10.33;;;;;47.01;46.97;101837.16;6331205;22;45358;-85
2022/07/21 12:19:17;;;;;;;;;10.00;10.00;;;;;48.20;48.37;101828.47;6334339;22;45366;-85
2022/07/21 12:21:44;;;;;;;;;12.00;12.00;;;;;48.70;48.28;101826.25;6327833;22;45304;-85
2022/07/21 12:24:10;;;;;;;;;11.67;11.00;;;;;49.46;47.96;101829.66;6332268;22;46213;-85
2022/07/21 12:26:35;;;;;;;;;10.67;10.67;;;;;50.85;47.31;101824.91;6332680;22;45406;-86
2022/07/21 12:29:00;;;;;;;;;10.67;10.67;;;;;52.02;46.49;101821.84;6331032;22;50567;-86
2022/07/21 12:31:26;;;;;;;;;11.33;10.67;;;;;51.59;44.35;101817.47;6330558;22;45307;-86
2022/07/21 12:33:53;;;;;;;;;11.00;11.00;;;;;49.73;44.35;101820.22;6331267;22;63760;-86
2022/07/21 12:36:20;;;;;;;;;12.33;12.00;;;;;47.65;44.97;101822.72;6332259;22;45781;-86
2022/07/21 12:38:46;;;;;;;;;11.00;11.00;;;;;45.84;46.40;101821.84;6332901;22;45288;-86
2022/07/21 12:41:18;;;;;;;;;11.67;11.67;;;;;44.33;47.66;101818.88;6332155;22;45451;-86
2022/07/21 12:43:56;;;;;;;;;10.67;10.67;;;;;43.08;48.31;101818.63;6331527;22;45557;-85
2022/07/21 12:46:29;;;;;;;;;12.00;12.00;;;;;42.48;50.28;101818.56;6332153;22;45340;-85
2022/07/21 12:49:06;;;;;;;;;10.67;10.67;;;;;42.28;50.71;101818.16;6303943;22;45336;-86
2022/07/21 12:51:32;;;;;;;;;10.67;10.33;;;;;44.04;51.53;101808.38;6333128;22;45347;-85
2022/07/21 12:53:57;;;;;;;;;11.00;11.00;;;;;45.65;49.79;101816.03;6332292;22;45314;-85
2022/07/21 12:56:28;;;;;;;;;10.00;10.00;;;;;45.32;49.08;101820.78;6332921;22;49380;-86
2022/07/21 12:58:55;;;;;;;;;11.67;10.33;;;;;44.10;48.73;101823.53;6332587;22;45439;-87
2022/07/21 13:01:22;;;;;;;;;12.00;12.00;;;;;42.68;49.42;101814.25;6331900;22;45321;-86
2022/07/21 13:03:48;;;;;;;;;11.33;11.33;;;;;41.39;50.68;101814.34;6332834;22;45772;-86
2022/07/21 13:06:15;;;;;;;;;13.67;12.67;;;;;40.25;51.00;101812.69;6332090;22;45304;-86
2022/07/21 13:08:41;;;;;;;;;11.67;11.33;;;;;39.27;52.46;101812.25;6332707;22;45894;-85
2022/07/21 13:11:08;;;;;;;;;10.33;10.33;;;;;38.42;53.23;101806.19;6304501;22;45598;-86
2022/07/21 13:13:33;;;;;;;;;12.67;11.00;;;;;37.65;53.99;101803.94;6331726;22;45736;-84
2022/07/21 13:15:59;;;;;;;;;12.00;12.00;;;;;37.81;56.33;101783.94;6331997;22;45592;-85
2022/07/21 13:18:25;;;;;;;;;13.00;12.00;;;;;40.48;56.91;101782.75;6332729;22;45739;-84
2022/07/21 13:20:52;;;;;;;;;10.67;10.67;;;;;43.62;55.71;101790.50;6332985;22;45230;-85
2022/07/21 13:23:18;;;;;;;;;10.33;10.33;;;;;45.48;52.90;101803.72;6332261;22;46488;-85
2022/07/21 13:25:44;;;;;;;;;17.00;14.00;;;;;45.28;50.57;101817.41;6303763;22;46050;-85
2022/07/21 13:28:09;;;;;;;;;11.67;11.67;;;;;44.29;50.10;101809.09;6332229;22;45328;-85
2022/07/21 13:30:35;;;;;;;;;12.67;12.67;;;;;44.58;51.19;101796.59;6331749;22;45468;-85
2022/07/21 13:33:00;;;;;;;;;11.67;11.33;;;;;44.29;50.31;101805.44;6355367;22;46980;-85
2022/07/21 13:35:26;;;;;;;;;12.00;10.67;;;;;43.38;50.11;101808.03;6304489;22;45331;-85
2022/07/21 13:37:56;;;;;;;;;10.33;9.67;;;;;42.29;50.35;101804.22;6333113;22;45415;-85
2022/07/21 13:40:22;;;;;;;;;9.33;9.33;;;;;41.24;50.98;101808.91;6332837;22;45304;-85
2022/07/21 13:42:47;;;;;;;;;14.33;12.00;;;;;40.22;51.93;101802.72;6331746;22;45360;-84
2022/07/21 13:45:14;;;;;;;;;11.33;11.33;;;;;39.32;52.68;101792.78;6330397;22;55691;-84
2022/07/21 13:47:39;;;;;;;;;11.00;11.00;;;;;38.63;53.68;101791.31;6332121;22;45390;-84
2022/07/21 13:50:05;;;;;;;;;12.67;12.33;;;;;38.05;54.49;101783.56;6331067;22;45454;-84
2022/07/21 13:52:32;;;;;;;;;13.00;13.00;;;;;37.56;54.97;101792.50;6332388;22;45672;-84
2022/07/21 13:54:58;;;;;;;;;13.00;12.00;;;;;37.12;55.73;101782.91;6331832;22;45560;-84
2022/07/21 13:57:24;;;;;;;;;14.00;14.00;;;;;36.77;56.81;101767.34;6332708;22;45878;-84
2022/07/21 13:59:49;;;;;;;;;14.33;14.33;;;;;36.84;57.55;101766.06;6331025;22;45679;-83
2022/07/21 14:02:15;;;;;;;;;13.33;12.33;;;;;37.21;57.72;101771.47;6330991;22;62819;-84
2022/07/21 14:04:40;;;;;;;;;12.67;12.67;;;;;37.49;57.07;101780.13;6332823;22;45334;-84
2022/07/21 14:07:05;;;;;;;;;11.67;10.67;;;;;38.17;57.53;101771.03;6331549;22;45322;-84
2022/07/21 14:09:31;;;;;;;;;12.67;11.33;;;;;40.12;57.47;101760.34;6332418;22;45250;-84
2022/07/21 14:11:57;;;;;;;;;12.67;9.67;;;;;42.16;55.24;101771.22;6304129;22;47123;-84
2022/07/21 14:14:25;;;;;;;;;10.67;10.00;;;;;42.51;53.81;101771.44;6302800;22;45305;-84
2022/07/21 14:16:53;;;;;;;;;10.00;9.33;;;;;42.02;53.55;101771.31;6331833;22;45360;-84
2022/07/21 14:19:18;;;;;;;;;11.00;10.67;;;;;41.27;52.48;101781.16;6331314;22;45444;-84
2022/07/21 14:21:43;;;;;;;;;13.33;12.00;;;;;40.47;52.87;101772.75;6331502;22;55875;-84
2022/07/21 14:26:53;;;;;;;;;9.33;9.33;;;;;38.98;54.38;101765.50;6333530;22;45424;-83
2022/07/21 14:29:18;;;;;;;;;12.00;11.67;;;;;38.44;54.40;101768.59;6331601;22;45234;-84
2022/07/21 14:31:43;;;;;;;;;11.67;11.00;;;;;38.37;55.28;101761.69;6330740;22;57105;-85
2022/07/21 14:34:08;;;;;;;;;10.33;10.33;;;;;37.99;55.34;101760.13;6332065;22;52097;-84
2022/07/21 14:36:34;;;;;;;;;11.00;11.00;;;;;37.57;55.01;101766.03;6304379;22;45243;-83
2022/07/21 14:38:59;;;;;;;;;9.67;9.00;;;;;37.30;55.35;101766.50;6332038;22;45347;-83
2022/07/21 14:41:24;;;;;;;;;34.25;31.00;;;;;37.10;56.35;101761.13;6303200;22;69442;-84
2022/07/21 14:43:50;;;;;;;;;11.67;11.67;;;;;36.99;55.96;101760.78;6329825;22;59818;-84
2022/07/21 14:46:16;;;;;;;;;13.33;11.67;;;;;37.66;57.02;101754.56;6330822;22;45533;-83
2022/07/21 14:48:41;;;;;;;;;9.67;8.67;;;;;38.28;56.21;101749.34;6302779;22;45325;-83
2022/07/21 14:51:06;;;;;;;;;13.00;13.00;;;;;39.50;55.98;101745.94;6333240;22;45308;-83
2022/07/21 14:53:32;;;;;;;;;10.67;10.67;;;;;39.60;54.56;101749.84;6333587;22;45344;-83
2022/07/21 14:55:57;;;;;;;;;14.00;14.00;;;;;39.21;54.46;101752.22;6333406;22;45341;-83
2022/07/21 14:58:22;;;;;;;;;12.33;11.67;;;;;38.70;54.20;101753.41;6332877;22;45193;-83
2022/07/21 15:00:48;;;;;;;;;13.00;12.00;;;;;38.15;54.41;101748.28;6333755;22;45385;-83
2022/07/21 15:03:14;;;;;;;;;12.33;12.00;;;;;37.58;54.51;101751.34;6303691;22;45883;-83
2022/07/21 15:05:39;;;;;;;;;10.67;9.00;;;;;37.05;55.28;101746.81;6333745;22;45313;-83
2022/07/21 15:08:05;;;;;;;;;16.33;13.00;;;;;36.55;55.93;101741.97;6333277;22;45432;-83
2022/07/21 15:10:30;;;;;;;;;15.67;14.33;;;;;36.09;56.25;101745.06;6333088;22;45399;-83
2022/07/21 15:12:55;;;;;;;;;14.33;13.00;;;;;35.69;57.03;101745.97;6333009;22;45513;-83
2022/07/21 15:15:21;;;;;;;;;14.33;14.00;;;;;35.32;57.46;101732.13;6332457;22;57183;-83
2022/07/21 15:17:46;;;;;;;;;11.33;11.33;;;;;35.02;58.33;101722.53;6331992;22;45467;-82
2022/07/21 15:20:11;;;;;;;;;12.00;12.00;;;;;34.85;58.51;101713.22;6333574;22;45325;-83
2022/07/21 15:22:37;;;;;;;;;11.67;11.67;;;;;34.66;59.47;101716.69;6333252;22;45422;-83
2022/07/21 15:25:09;;;;;;;;;18.00;14.67;;;;;34.44;59.29;101703.06;6333151;22;45530;-87
2022/07/21 15:27:34;;;;;;;;;15.67;13.67;;;;;34.20;59.67;101700.38;6332933;22;45879;-88
2022/07/21 15:30:01;;;;;;;;;16.67;13.67;;;;;33.94;60.47;101699.59;6332562;22;45965;-88
2022/07/21 15:32:28;;;;;;;;;15.00;12.67;;;;;33.67;60.68;101693.28;6332244;22;45525;-88
2022/07/21 15:34:53;;;;;;;;;16.00;14.33;;;;;33.41;61.36;101687.00;6333214;22;45331;-88
2022/07/21 15:37:18;;;;;;;;;15.33;15.00;;;;;33.22;61.97;101682.22;6305313;22;45394;-90
2022/07/21 15:39:58;;;;;;;;;14.67;14.67;;;;;33.03;62.48;101662.94;6349504;22;45177;-96
2022/07/21 15:42:24;;;;;;;;;13.67;13.00;;;;;32.95;62.68;101670.47;6320205;22;45239;-96
2022/07/21 15:44:50;;;;;;;;;16.33;15.33;;;;;32.82;62.75;101659.13;6325396;22;45359;-95
2022/07/21 15:47:15;;;;;;;;;15.33;13.67;;;;;32.70;63.64;101636.91;6304237;22;46053;-95
2022/07/21 16:00:53;;;;;;;;;15.67;14.67;;;;;32.39;64.51;101616.19;6351572;22;45206;-96
2022/07/21 16:03:20;;;;;;;;;11.00;11.00;;;;;32.41;64.73;101614.28;6324787;22;45347;-96
2022/07/21 16:08:21;;;;;;;;;14.00;13.00;;;;;32.23;64.73;101613.97;6313819;22;46403;-93
2022/07/21 16:10:46;;;;;;;;;12.67;12.67;;;;;32.20;64.95;101617.69;6317358;22;47395;-96
2022/07/21 16:13:51;;;;;;;;;15.67;14.33;;;;;32.15;65.51;101608.78;6329438;22;44747;-96
2022/07/21 16:16:29;;;;;;;;;14.67;14.00;;;;;31.98;64.85;101614.75;6344399;22;45304;-96
2022/07/21 16:18:55;;;;;;;;;16.00;14.67;;;;;31.92;65.02;101615.81;6344839;22;45480;-95
2022/07/21 16:21:20;;;;;;;;;16.67;14.00;;;;;31.92;65.50;101613.09;6316730;22;48138;-96
2022/07/21 16:23:45;;;;;;;;;16.67;16.67;;;;;31.86;66.08;101588.84;6339179;22;45676;-96
2022/07/21 16:26:10;;;;;;;;;15.33;13.67;;;;;31.80;65.87;101583.63;6348178;22;45248;-95
2022/07/21 16:28:36;;;;;;;;;13.33;12.33;;;;;31.82;65.97;101579.94;6312049;22;45303;-95
2022/07/21 16:31:01;;;;;;;;;14.33;14.00;;;;;31.80;66.44;101568.25;6329722;22;47026;-85
2022/07/21 16:33:26;;;;;;;;;14.67;14.67;;;;;31.79;66.40;101563.75;6334475;22;47368;-85
2022/07/21 16:35:52;;;;;;;;;12.33;12.33;;;;;31.75;66.54;101572.94;6332962;22;48205;-86
2022/07/21 16:38:17;;;;;;;;;15.00;13.00;;;;;31.71;66.31;101577.56;6333833;22;45375;-86
2022/07/21 16:40:43;;;;;;;;;14.67;14.00;;;;;31.66;67.24;101561.44;6333353;22;49642;-86
2022/07/21 16:43:08;;;;;;;;;14.00;12.67;;;;;31.62;67.15;101553.44;6333267;22;45551;-86
2022/07/21 16:45:33;;;;;;;;;13.33;13.33;;;;;31.59;67.49;101542.69;6333191;22;45576;-85
2022/07/21 16:47:59;;;;;;;;;13.00;11.67;;;;;31.57;66.92;101548.13;6332403;22;45335;-85
2022/07/21 16:50:24;;;;;;;;;15.67;14.67;;;;;31.56;67.13;101541.84;6333728;22;45627;-85
2022/07/21 16:52:50;;;;;;;;;14.67;14.00;;;;;31.53;66.48;101554.59;6333292;22;45399;-85
2022/07/21 16:55:16;;;;;;;;;18.33;13.00;;;;;31.41;66.96;101545.00;6305785;22;45238;-89
2022/07/21 16:57:43;;;;;;;;;14.00;12.33;;;;;31.30;66.68;101553.44;6334699;22;45292;-90
2022/07/21 17:00:10;;;;;;;;;12.00;11.00;;;;;31.11;66.94;101540.41;6302564;22;48132;-90
2022/07/21 17:02:35;;;;;;;;;13.67;13.00;;;;;30.93;67.48;101521.06;6332776;22;45499;-89
2022/07/21 17:05:01;;;;;;;;;13.33;12.33;;;;;30.78;67.33;101522.34;6333547;22;45369;-90
2022/07/21 17:07:26;;;;;;;;;13.33;12.67;;;;;30.63;67.25;101510.13;6334254;22;45376;-90
2022/07/21 17:09:51;;;;;;;;;16.00;16.00;;;;;30.49;67.66;101502.41;6332718;22;60662;-90
2022/07/21 17:12:16;;;;;;;;;17.00;16.00;;;;;30.32;67.94;101498.28;6332667;22;53959;-90
2022/07/21 17:14:42;;;;;;;;;15.67;15.67;;;;;30.20;68.52;101483.25;6332088;22;45677;-90
2022/07/21 17:17:08;;;;;;;;;12.33;12.33;;;;;30.07;68.76;101471.84;6333308;22;45454;-90
2022/07/21 17:19:33;;;;;;;;;15.00;13.67;;;;;29.94;69.16;101450.53;6305078;22;46927;-91
2022/07/21 17:21:58;;;;;;;;;14.00;12.33;;;;;29.83;68.69;101463.41;6305126;22;47680;-88
2022/07/21 17:24:23;;;;;;;;;13.33;13.00;;;;;29.71;68.66;101456.47;6331596;22;45535;-89
2022/07/21 17:26:49;;;;;;;;;14.00;14.00;;;;;29.62;68.86;101442.22;6331514;22;45491;-88
2022/07/21 17:29:14;;;;;;;;;15.00;13.67;;;;;29.55;69.29;101441.50;6330908;22;55886;-88
2022/07/21 17:31:41;;;;;;;;;14.67;14.67;;;;;29.45;69.34;101426.44;6331471;22;45329;-86
2022/07/21 17:34:07;;;;;;;;;13.67;13.67;;;;;29.37;69.47;101414.91;6327674;22;45322;-87
2022/07/21 17:36:32;;;;;;;;;12.33;12.00;;;;;29.31;69.15;101440.25;6333009;22;45300;-87
2022/07/21 17:38:57;;;;;;;;;16.00;14.67;;;;;29.21;69.48;101421.56;6332732;22;45637;-87
2022/07/21 17:41:22;;;;;;;;;16.33;16.33;;;;;29.16;69.59;101420.75;6333468;22;47051;-88
2022/07/21 17:43:48;;;;;;;;;15.67;14.67;;;;;29.08;70.40;101382.19;6304467;22;45347;-88
2022/07/21 17:46:13;;;;;;;;;17.00;16.00;;;;;29.03;70.74;101354.38;6331899;22;45606;-89
2022/07/21 17:48:38;;;;;;;;;16.67;15.33;;;;;28.98;71.36;101341.88;6332747;22;46139;-88